Time;durP1;ratioP1;P1;durP2;ratioP2;P2;SDS_P1;SDS_P2;PMS_P1;PMS_P2;Temp;Humidity;BMP_temperature;BMP_pressure;BME280_temperature;BME280_humidity;BME280_pressure;Samples;Min_cycle;Max_cycle;Signal;HPM_P1;HPM_P2
2022/12/18 00:01:33;;;;;;;22.58;15.13;;;;;;;-1.49;100.00;99859.48;1759715;80;21098;-73
2022/12/18 00:04:00;;;;;;;23.05;15.30;;;;;;;-1.49;100.00;99866.16;1753846;80;20995;-73
2022/12/18 00:06:28;;;;;;;25.80;15.55;;;;;;;-1.49;100.00;99874.67;1753924;80;21050;-73
2022/12/18 00:08:55;;;;;;;24.57;16.23;;;;;;;-1.53;100.00;99879.56;1742957;81;21432;-73
2022/12/18 00:11:25;;;;;;;21.55;14.75;;;;;;;-1.56;100.00;99880.75;1738803;80;21066;-72
2022/12/18 00:13:52;;;;;;;24.12;14.25;;;;;;;-1.54;100.00;99892.08;1741034;80;21568;-73
2022/12/18 00:16:21;;;;;;;22.35;14.47;;;;;;;-1.57;100.00;99896.97;1730066;82;21075;-73
2022/12/18 00:18:49;;;;;;;21.93;14.70;;;;;;;-1.61;100.00;99900.53;1731695;82;21578;-72
2022/12/18 00:21:16;;;;;;;22.73;15.63;;;;;;;-1.62;100.00;99910.88;1713274;81;21032;-73
2022/12/18 00:23:43;;;;;;;24.35;15.48;;;;;;;-1.60;100.00;99913.38;1717736;82;20997;-72
2022/12/18 00:26:13;;;;;;;26.52;15.95;;;;;;;-1.63;100.00;99902.55;1724863;82;21130;-73
2022/12/18 00:28:41;;;;;;;24.98;16.27;;;;;;;-1.62;100.00;99910.05;1704800;82;21021;-73
2022/12/18 00:31:14;;;;;;;24.55;15.03;;;;;;;-1.63;100.00;99914.56;1720779;81;21426;-72
2022/12/18 00:33:40;;;;;;;28.42;16.20;;;;;;;-1.63;100.00;99913.76;1728170;82;21012;-73
2022/12/18 00:36:15;;;;;;;24.45;15.72;;;;;;;-1.66;100.00;99918.95;1714768;81;21107;-73
2022/12/18 00:38:41;;;;;;;24.57;15.78;;;;;;;-1.70;100.00;99923.53;1718195;81;21043;-73
2022/12/18 00:41:08;;;;;;;20.45;14.38;;;;;;;-1.70;100.00;99924.34;1723611;82;21057;-73
2022/12/18 00:43:36;;;;;;;21.95;14.47;;;;;;;-1.70;100.00;99931.01;1720850;81;21055;-73
2022/12/18 00:46:02;;;;;;;20.85;15.08;;;;;;;-1.73;100.00;99927.89;1725134;81;21661;-73
2022/12/18 00:48:30;;;;;;;25.50;16.17;;;;;;;-1.75;100.00;99943.27;1717224;82;21020;-73
2022/12/18 00:50:56;;;;;;;25.40;16.23;;;;;;;-1.76;100.00;99954.45;1724829;82;20984;-73
2022/12/18 00:53:23;;;;;;;24.75;15.88;;;;;;;-1.76;100.00;99958.95;1727555;82;21012;-73
2022/12/18 00:55:49;;;;;;;25.32;15.75;;;;;;;-1.79;100.00;99951.33;1736271;82;21851;-73
2022/12/18 00:58:17;;;;;;;25.75;16.57;;;;;;;-1.84;100.00;99953.22;1711585;82;21008;-74
2022/12/18 01:00:43;;;;;;;22.02;14.15;;;;;;;-1.85;100.00;99958.77;1724296;82;20968;-73
2022/12/18 01:03:13;;;;;;;23.38;14.33;;;;;;;-1.89;100.00;99958.30;1729128;81;21027;-73
2022/12/18 01:05:41;;;;;;;23.07;15.13;;;;;;;-1.91;100.00;99966.98;1725902;82;20980;-73
2022/12/18 01:08:08;;;;;;;23.25;14.60;;;;;;;-1.96;100.00;99960.56;1716348;82;20988;-74
2022/12/18 01:10:35;;;;;;;23.65;14.47;;;;;;;-2.00;100.00;99973.45;1715992;81;20948;-74
2022/12/18 01:13:01;;;;;;;24.90;16.17;;;;;;;-2.02;100.00;99968.28;1711836;81;21405;-73
2022/12/18 01:15:28;;;;;;;27.77;17.05;;;;;;;-2.01;100.00;99978.45;1733301;82;21507;-74
2022/12/18 01:17:55;;;;;;;25.55;15.28;;;;;;;-2.03;100.00;99981.83;1703514;82;21064;-73
2022/12/18 01:20:21;;;;;;;24.43;15.80;;;;;;;-2.01;100.00;99983.79;1703430;82;21051;-74
2022/12/18 01:22:48;;;;;;;25.23;15.83;;;;;;;-2.02;100.00;99986.95;1665683;84;21163;-73
2022/12/18 01:25:14;;;;;;;23.95;15.18;;;;;;;-2.04;100.00;99986.33;1691443;83;21011;-74
2022/12/18 01:27:40;;;;;;;22.58;14.25;;;;;;;-2.06;100.00;99991.03;1697245;84;21067;-73
2022/12/18 01:30:08;;;;;;;20.40;14.05;;;;;;;-2.09;100.00;99990.58;1692419;82;21102;-74
2022/12/18 01:32:35;;;;;;;23.87;15.28;;;;;;;-2.10;100.00;99994.24;1691625;84;21158;-74
2022/12/18 01:35:02;;;;;;;24.82;15.00;;;;;;;-2.14;100.00;99993.78;1688557;84;21921;-73
2022/12/18 01:37:29;;;;;;;24.82;15.63;;;;;;;-2.15;100.00;100004.62;1699060;82;21118;-73
2022/12/18 01:39:55;;;;;;;23.35;14.15;;;;;;;-2.16;100.00;100001.12;1707239;84;21600;-73
2022/12/18 01:42:22;;;;;;;23.40;14.45;;;;;;;-2.18;100.00;100008.99;1703724;82;21725;-72
2022/12/18 01:45:13;;;;;;;23.22;13.68;;;;;;;-2.20;100.00;100009.20;1710019;84;21086;-74
2022/12/18 01:47:49;;;;;;;23.22;14.07;;;;;;;-2.23;100.00;100004.73;1685468;84;21170;-74
2022/12/18 01:50:22;;;;;;;23.80;14.30;;;;;;;-2.26;100.00;100015.23;1709873;83;21043;-73
2022/12/18 01:52:52;;;;;;;25.10;14.75;;;;;;;-2.28;100.00;100012.44;1709810;82;21078;-73
2022/12/18 01:55:22;;;;;;;24.20;15.23;;;;;;;-2.28;100.00;100011.11;1702235;83;21050;-73
2022/12/18 01:57:52;;;;;;;23.38;15.35;;;;;;;-2.31;100.00;100012.31;1696696;83;21091;-73
2022/12/18 02:00:20;;;;;;;25.25;15.45;;;;;;;-2.31;100.00;100013.64;1699545;84;21066;-73
2022/12/18 02:22:39;;;;;;;27.82;16.50;;;;;;;-3.19;100.00;100027.20;1795230;78;23471;-73
2022/12/18 02:25:46;;;;;;;29.32;16.73;;;;;;;-3.19;100.00;100038.66;1733627;82;21047;-72
2022/12/18 02:28:15;;;;;;;27.07;15.98;;;;;;;-3.01;100.00;100044.53;1749165;82;21046;-73
2022/12/18 02:30:42;;;;;;;24.72;14.73;;;;;;;-2.87;100.00;100041.60;1737760;82;21003;-73
2022/12/18 02:33:08;;;;;;;24.52;14.47;;;;;;;-2.78;100.00;100044.55;1712231;82;21042;-73
2022/12/18 02:35:35;;;;;;;;;;;;;;;-2.69;100.00;100050.63;1734055;82;20991;-73
2022/12/18 02:38:03;;;;;;;23.25;13.55;;;;;;;-2.66;100.00;100060.95;1712705;82;20103;-72
2022/12/18 02:40:29;;;;;;;22.65;13.60;;;;;;;-2.67;100.00;100065.95;1745640;82;21493;-73
2022/12/18 02:43:10;;;;;;;20.10;12.80;;;;;;;-2.65;100.00;100058.59;1726223;82;21541;-72
2022/12/18 02:45:56;;;;;;;23.12;13.08;;;;;;;-2.63;100.00;100067.25;1701291;82;21054;-73
2022/12/18 02:48:32;;;;;;;18.48;11.22;;;;;;;-2.65;100.00;100063.42;1721694;82;21032;-73
2022/12/18 02:51:19;;;;;;;18.13;10.77;;;;;;;-2.64;100.00;100063.75;1669636;83;20982;-72
2022/12/18 02:54:11;;;;;;;;;;;;;;;-2.66;100.00;100067.09;1693627;83;21320;-73
2022/12/18 02:56:46;;;;;;;19.00;11.12;;;;;;;-2.73;100.00;100074.13;1592896;85;20108;-73
2022/12/18 02:59:18;;;;;;;17.40;9.83;;;;;;;-2.81;100.00;100083.54;1688072;84;21014;-72
2022/12/18 03:02:01;;;;;;;16.85;10.28;;;;;;;-2.83;100.00;100090.87;1699986;84;21074;-73
2022/12/18 03:04:43;;;;;;;18.15;10.00;;;;;;;-2.86;100.00;100104.55;1693557;84;21106;-73
2022/12/18 03:07:18;;;;;;;18.65;10.55;;;;;;;-2.88;100.00;100107.07;1660437;85;21003;-73
2022/12/18 03:09:47;;;;;;;18.80;11.53;;;;;;;-2.88;100.00;100104.41;1693281;84;21628;-73
2022/12/18 03:12:24;;;;;;;17.57;11.40;;;;;;;-2.89;100.00;100121.39;1688658;84;21104;-72
2022/12/18 03:15:00;;;;;;;18.57;11.12;;;;;;;-2.91;100.00;100125.58;1691509;83;21429;-73
2022/12/18 03:17:27;;;;;;;18.80;11.05;;;;;;;-2.93;100.00;100120.91;1707394;83;21611;-73
2022/12/18 03:19:56;;;;;;;17.05;10.53;;;;;;;-2.92;100.00;100133.73;1695467;83;21010;-72
2022/12/18 03:22:24;;;;;;;15.35;10.70;;;;;;;-2.92;100.00;100136.39;1680273;84;20956;-72
2022/12/18 03:24:51;;;;;;;17.37;10.40;;;;;;;-2.90;100.00;100139.20;1721907;82;21012;-72
2022/12/18 03:27:18;;;;;;;;;;;;;;;-2.92;100.00;100143.89;1714054;82;20971;-72
2022/12/18 03:29:52;;;;;;;17.90;10.82;;;;;;;-2.93;100.00;100134.23;1722768;81;20395;-72
2022/12/18 03:32:31;;;;;;;16.42;10.38;;;;;;;-3.00;100.00;100138.59;1734015;82;21040;-72
2022/12/18 03:35:00;;;;;;;16.95;10.95;;;;;;;-3.02;100.00;100136.63;1714112;82;20963;-72
2022/12/18 03:37:31;;;;;;;16.75;10.45;;;;;;;-3.02;100.00;100140.62;1727065;82;21528;-72
2022/12/18 03:39:57;;;;;;;16.37;10.32;;;;;;;-3.01;100.00;100155.08;1724480;82;21031;-72
2022/12/18 03:42:47;;;;;;;16.90;10.72;;;;;;;-3.03;100.00;100137.62;1715189;82;21138;-73
2022/12/18 03:45:34;;;;;;;18.48;10.78;;;;;;;-3.05;100.00;100147.62;1713681;82;21027;-72
2022/12/18 03:48:21;;;;;;;17.80;10.13;;;;;;;-3.06;100.00;100148.63;1709984;82;21047;-72
2022/12/18 03:51:04;;;;;;;17.70;10.48;;;;;;;-3.10;100.00;100145.48;1724695;81;21012;-72
2022/12/18 03:53:49;;;;;;;17.07;10.88;;;;;;;-3.12;100.00;100154.12;1711573;82;21063;-72
2022/12/18 03:56:16;;;;;;;16.95;9.78;;;;;;;-3.11;100.00;100162.95;1714911;82;21043;-73
2022/12/18 03:58:43;;;;;;;17.02;10.58;;;;;;;-3.12;100.00;100170.11;1714003;82;21397;-72
2022/12/18 04:01:15;;;;;;;14.98;10.00;;;;;;;-3.11;100.00;100174.44;1711529;82;21090;-72
2022/12/18 04:03:42;;;;;;;15.23;10.38;;;;;;;-3.09;100.00;100176.94;1725849;82;21572;-71
2022/12/18 04:06:11;;;;;;;15.43;9.40;;;;;;;-3.11;100.00;100173.60;1719313;82;21055;-72
2022/12/18 04:08:39;;;;;;;17.60;10.30;;;;;;;-3.14;100.00;100173.95;1727319;82;21067;-72
2022/12/18 04:11:06;;;;;;;16.00;9.25;;;;;;;-3.17;100.00;100179.13;1716851;82;21648;-72
2022/12/18 04:13:36;;;;;;;16.90;10.15;;;;;;;-3.18;100.00;100185.45;1719203;82;21137;-72
2022/12/18 04:16:05;;;;;;;16.20;9.65;;;;;;;-3.18;100.00;100192.11;1715014;82;21043;-72
2022/12/18 04:18:32;;;;;;;15.45;9.70;;;;;;;-3.18;100.00;100189.95;1723141;82;21019;-72
2022/12/18 04:20:59;;;;;;;16.30;10.28;;;;;;;-3.20;100.00;100197.29;1736783;81;21034;-72
2022/12/18 04:23:26;;;;;;;15.48;10.28;;;;;;;-3.22;100.00;100197.45;1724260;82;21321;-72
2022/12/18 04:25:53;;;;;;;16.12;10.20;;;;;;;-3.21;100.00;100204.94;1749010;82;21019;-71
2022/12/18 04:28:22;;;;;;;15.35;9.35;;;;;;;-3.22;100.00;100200.11;1736838;82;21157;-72
2022/12/18 04:30:49;;;;;;;16.70;10.28;;;;;;;-3.24;100.00;100206.63;1726683;82;21078;-72
2022/12/18 04:33:16;;;;;;;14.80;9.23;;;;;;;-3.31;100.00;100201.65;1736543;82;21078;-73
2022/12/18 04:35:42;;;;;;;;;;;;;;;-3.29;100.00;100219.60;1749839;82;21047;-72
2022/12/18 04:38:09;;;;;;;17.82;10.50;;;;;;;-3.29;100.00;100216.94;1731969;82;20133;-72
2022/12/18 04:40:37;;;;;;;15.55;9.13;;;;;;;-3.34;100.00;100209.98;1706500;83;21054;-73
2022/12/18 04:43:05;;;;;;;17.17;9.90;;;;;;;-3.38;100.00;100213.48;1726136;82;21098;-72
2022/12/18 04:45:33;;;;;;;15.35;9.10;;;;;;;-3.38;100.00;100227.30;1736587;82;21827;-72
2022/12/18 04:47:59;;;;;;;;;;;;;;;-3.43;100.00;100226.47;1740198;82;21066;-72
2022/12/18 04:50:26;;;;;;;16.60;9.15;;;;;;;-3.41;100.00;100235.62;1729165;82;20141;-73
2022/12/18 04:52:52;;;;;;;15.58;9.55;;;;;;;-3.47;100.00;100237.11;1735260;82;21073;-72
2022/12/18 04:55:18;;;;;;;17.10;10.08;;;;;;;-3.47;100.00;100233.66;1724343;82;21000;-72
2022/12/18 04:57:45;;;;;;;17.00;9.35;;;;;;;-3.46;100.00;100237.45;1731233;82;21058;-72
2022/12/18 05:00:12;;;;;;;15.88;8.68;;;;;;;-3.46;100.00;100240.12;1722591;82;21062;-73
2022/12/18 05:02:39;;;;;;;18.00;10.28;;;;;;;-3.45;100.00;100260.42;1725669;82;21913;-72
2022/12/18 05:05:06;;;;;;;15.78;9.50;;;;;;;-3.44;100.00;100253.27;1725142;82;20959;-72
2022/12/18 05:07:33;;;;;;;17.73;9.53;;;;;;;-3.43;100.00;100257.57;1733089;82;21444;-72
2022/12/18 05:09:59;;;;;;;15.78;9.55;;;;;;;-3.43;100.00;100264.23;1728260;82;22000;-72
2022/12/18 05:12:26;;;;;;;17.27;9.18;;;;;;;-3.46;100.00;100257.91;1727021;82;21405;-72
2022/12/18 05:14:52;;;;;;;15.70;9.33;;;;;;;-3.47;100.00;100269.05;1726116;82;20999;-72
2022/12/18 05:17:19;;;;;;;15.03;9.25;;;;;;;-3.47;100.00;100273.58;1726969;82;21342;-71
2022/12/18 05:19:45;;;;;;;;;;;;;;;-3.46;100.00;100280.54;1724067;82;21089;-72
2022/12/18 05:22:11;;;;;;;17.02;8.85;;;;;;;-3.45;100.00;100282.21;1724864;82;20142;-72
2022/12/18 05:24:38;;;;;;;;;;;;;;;-3.49;100.00;100290.20;1728854;82;21492;-72
2022/12/18 05:27:04;;;;;;;17.90;9.90;;;;;;;-3.51;100.00;100295.70;1744473;82;20115;-72
2022/12/18 05:29:31;;;;;;;18.10;9.28;;;;;;;-3.58;100.00;100302.17;1746533;82;21012;-72
2022/12/18 05:31:57;;;;;;;19.10;10.25;;;;;;;-3.59;100.00;100293.04;1729802;82;21472;-72
2022/12/18 05:34:23;;;;;;;17.82;9.55;;;;;;;-3.61;100.00;100306.99;1741523;82;21035;-73
2022/12/18 05:36:50;;;;;;;16.40;9.58;;;;;;;-3.63;100.00;100315.16;1722164;81;21898;-72
2022/12/18 05:39:16;;;;;;;14.33;8.88;;;;;;;-3.61;100.00;100326.45;1719593;82;21553;-72
2022/12/18 05:41:42;;;;;;;15.65;8.25;;;;;;;-3.60;100.00;100332.13;1719275;82;20992;-73
2022/12/18 05:44:09;;;;;;;14.55;8.48;;;;;;;-3.58;100.00;100348.74;1733525;82;21016;-72
2022/12/18 05:46:36;;;;;;;15.20;9.10;;;;;;;-3.61;100.00;100342.42;1738799;82;21038;-73
2022/12/18 05:49:02;;;;;;;15.58;9.93;;;;;;;-3.59;100.00;100352.92;1715213;82;21019;-74
2022/12/18 05:51:31;;;;;;;16.35;9.68;;;;;;;-3.59;100.00;100353.75;1729502;82;21019;-73
2022/12/18 05:53:57;;;;;;;15.15;8.78;;;;;;;-3.58;100.00;100355.92;1722675;82;21515;-72
2022/12/18 05:56:23;;;;;;;17.32;10.00;;;;;;;-3.58;100.00;100359.91;1742380;82;21035;-73
2022/12/18 05:58:53;;;;;;;16.55;9.08;;;;;;;-3.62;100.00;100367.40;1733585;82;21078;-73
2022/12/18 06:01:22;;;;;;;14.73;8.70;;;;;;;-3.65;100.00;100367.70;1717724;82;21650;-72
2022/12/18 06:03:49;;;;;;;15.32;8.50;;;;;;;-3.67;100.00;100384.84;1730580;82;21070;-72
2022/12/18 06:06:23;;;;;;;13.05;7.80;;;;;;;-3.71;100.00;100379.02;1717500;82;20995;-72
2022/12/18 06:08:49;;;;;;;14.20;9.00;;;;;;;-3.70;100.00;100384.67;1739292;82;21188;-72
2022/12/18 06:11:18;;;;;;;14.93;8.43;;;;;;;-3.70;100.00;100386.01;1745140;82;21560;-72
2022/12/18 06:13:45;;;;;;;14.95;9.63;;;;;;;-3.68;100.00;100391.14;1733650;82;21078;-73
2022/12/18 06:16:12;;;;;;;15.40;8.75;;;;;;;-3.67;100.00;100389.66;1723631;82;21117;-72
2022/12/18 06:18:39;;;;;;;15.60;9.68;;;;;;;-3.69;100.00;100387.68;1733717;82;21122;-72
2022/12/18 06:21:05;;;;;;;15.53;9.10;;;;;;;-3.69;100.00;100389.50;1728802;81;21058;-72
2022/12/18 06:23:33;;;;;;;15.60;9.00;;;;;;;-3.71;100.00;100386.16;1716954;82;21114;-73
2022/12/18 06:26:11;;;;;;;15.03;9.18;;;;;;;-3.76;100.00;100390.66;1708582;82;21003;-73
2022/12/18 06:28:38;;;;;;;15.38;8.70;;;;;;;-3.78;100.00;100400.62;1736491;82;21614;-72
2022/12/18 10:18:25;;;;;;;16.42;9.03;;;;;;;-5.21;100.00;100705.37;1775064;79;22211;-68
2022/12/18 10:20:54;;;;;;;15.15;8.33;;;;;;;-5.09;100.00;100712.66;1750116;82;21885;-69
2022/12/18 10:23:43;;;;;;;11.60;6.87;;;;;;;-4.83;100.00;100712.30;1749848;82;21667;-69
2022/12/18 10:26:10;;;;;;;12.47;6.85;;;;;;;-4.64;100.00;100711.35;1749064;82;21090;-69
2022/12/18 10:28:39;;;;;;;11.85;6.42;;;;;;;-4.47;100.00;100718.49;1750131;82;21114;-68
2022/12/18 10:31:09;;;;;;;16.60;9.33;;;;;;;-4.37;100.00;100724.56;1751585;82;21094;-69
2022/12/18 10:33:36;;;;;;;15.50;8.38;;;;;;;-4.32;100.00;100712.96;1748464;82;21502;-68
2022/12/18 10:36:03;;;;;;;20.92;9.10;;;;;;;-4.23;100.00;100708.56;1721740;82;21039;-69
2022/12/18 10:38:31;;;;;;;14.05;8.15;;;;;;;-4.20;100.00;100721.55;1720956;82;21047;-69
2022/12/18 10:41:11;;;;;;;14.75;7.62;;;;;;;-4.18;100.00;100723.05;1721878;83;21498;-69
2022/12/18 10:43:38;;;;;;;12.18;7.10;;;;;;;-4.12;100.00;100718.48;1732722;82;21058;-69
2022/12/18 10:46:15;;;;;;;14.28;8.00;;;;;;;-4.08;100.00;100717.67;1750782;81;21129;-69
2022/12/18 10:48:56;;;;;;;12.58;7.20;;;;;;;-4.09;100.00;100714.18;1751659;81;21007;-69
2022/12/18 10:51:30;;;;;;;10.55;5.95;;;;;;;-4.05;100.00;100718.70;1751984;82;21038;-69
2022/12/18 10:54:06;;;;;;;10.60;6.05;;;;;;;-4.06;100.00;100722.33;1749653;81;20955;-69
2022/12/18 10:56:36;;;;;;;10.90;6.60;;;;;;;-4.07;100.00;100725.97;1729731;82;21062;-69
2022/12/18 10:59:08;;;;;;;11.10;6.28;;;;;;;-4.03;100.00;100725.52;1722209;82;20991;-69
2022/12/18 11:01:49;;;;;;;12.23;7.15;;;;;;;-4.00;100.00;100727.03;1722398;82;21030;-69
2022/12/18 11:04:22;;;;;;;10.80;6.60;;;;;;;-3.96;100.00;100729.72;1719698;83;21030;-69
2022/12/18 11:07:08;;;;;;;10.38;6.45;;;;;;;-3.94;100.00;100736.23;1748221;82;21027;-69
2022/12/18 11:09:37;;;;;;;12.63;6.72;;;;;;;-3.93;100.00;100748.03;1752151;82;21010;-69
2022/12/18 11:12:19;;;;;;;11.08;6.33;;;;;;;-3.92;100.00;100741.73;1749491;82;21685;-69
2022/12/18 11:14:52;;;;;;;11.35;6.47;;;;;;;-3.92;100.00;100748.87;1722239;82;21011;-69
2022/12/18 11:17:31;;;;;;;11.28;6.37;;;;;;;-3.92;100.00;100746.21;1725044;82;21596;-69
2022/12/18 11:20:26;;;;;;;10.28;5.95;;;;;;;-3.91;100.00;100756.71;1727558;82;20975;-70
2022/12/18 11:22:58;;;;;;;10.20;6.00;;;;;;;-3.95;100.00;100767.31;1722726;83;21557;-70
2022/12/18 11:25:24;;;;;;;11.53;6.70;;;;;;;-3.96;100.00;100771.44;1723502;82;21317;-70
2022/12/18 11:27:54;;;;;;;12.00;6.90;;;;;;;-3.93;100.00;100768.50;1722824;83;21047;-69
2022/12/18 11:30:35;;;;;;;11.40;6.85;;;;;;;-3.91;100.00;100780.66;1722566;83;21361;-69
2022/12/18 11:33:19;;;;;;;11.30;6.50;;;;;;;-3.90;100.00;100778.34;1751213;82;21011;-70
2022/12/18 11:35:59;;;;;;;11.80;6.85;;;;;;;-3.89;100.00;100776.48;1732191;82;21482;-70
2022/12/18 11:38:30;;;;;;;10.90;6.53;;;;;;;-3.92;100.00;100787.44;1747581;82;21502;-70
2022/12/18 11:41:04;;;;;;;11.12;6.03;;;;;;;-3.93;100.00;100793.25;1751485;82;20979;-69
2022/12/18 11:43:50;;;;;;;10.45;5.90;;;;;;;-3.91;100.00;100791.29;1743919;82;21102;-69
2022/12/18 11:46:36;;;;;;;11.05;6.72;;;;;;;-3.92;100.00;100794.09;1722762;83;21438;-69
2022/12/18 11:49:22;;;;;;;9.55;5.60;;;;;;;-3.92;100.00;100813.55;1727724;82;20980;-69
2022/12/18 11:52:22;;;;;;;9.83;5.65;;;;;;;-3.89;100.00;100804.42;1752099;82;21098;-69
2022/12/18 11:54:52;;;;;;;9.90;5.78;;;;;;;-3.89;100.00;100812.41;1732374;82;21466;-69
2022/12/18 11:57:30;;;;;;;11.22;6.58;;;;;;;-3.92;100.00;100809.56;1722481;82;21054;-69
2022/12/18 12:00:16;;;;;;;10.13;7.00;;;;;;;-3.93;100.00;100808.41;1722210;82;21015;-69
2022/12/18 12:03:19;;;;;;;10.35;5.90;;;;;;;-3.97;100.00;100815.85;1730392;82;21102;-70
2022/12/18 12:06:14;;;;;;;12.18;7.00;;;;;;;-3.98;100.00;100815.50;1751781;82;21003;-70
2022/12/18 12:08:49;;;;;;;11.83;6.58;;;;;;;-4.00;100.00;100813.99;1745512;82;21394;-69
2022/12/18 12:11:36;;;;;;;10.85;6.58;;;;;;;-3.97;100.00;100821.66;1722185;83;20956;-70
2022/12/18 12:14:14;;;;;;;14.53;8.48;;;;;;;-3.96;100.00;100826.81;1684590;82;20995;-69
2022/12/18 12:16:57;;;;;;;15.45;8.98;;;;;;;-3.96;100.00;100825.48;1747558;81;21606;-70
2022/12/18 12:19:52;;;;;;;12.55;7.72;;;;;;;-3.94;100.00;100822.19;1738404;82;20980;-69
2022/12/18 12:22:36;;;;;;;16.48;9.15;;;;;;;-3.92;100.00;100828.19;1720244;82;21071;-71
2022/12/18 12:25:18;;;;;;;14.70;8.18;;;;;;;-3.93;100.00;100837.14;1702753;84;20999;-70
2022/12/18 12:28:15;;;;;;;12.50;7.05;;;;;;;-3.95;100.00;100851.10;1710233;82;21035;-70
2022/12/18 12:31:23;;;;;;;11.22;6.60;;;;;;;-3.96;100.00;100849.91;1709104;84;21019;-70
2022/12/18 12:34:23;;;;;;;10.43;5.53;;;;;;;-4.02;100.00;100855.36;1708855;82;21027;-70
2022/12/18 12:37:10;;;;;;;11.65;7.10;;;;;;;-4.09;100.00;100860.93;1708881;82;21055;-69
2022/12/18 12:39:38;;;;;;;10.53;5.97;;;;;;;-4.14;100.00;100860.05;1708879;84;21011;-69
2022/12/18 12:44:53;;;;;;;9.50;5.42;;;;;;;-4.15;100.00;100872.18;1709024;84;20968;-69
2022/12/18 12:47:38;;;;;;;12.33;6.85;;;;;;;-4.15;100.00;100865.53;1684173;84;21067;-69
2022/12/18 12:50:09;;;;;;;11.70;6.33;;;;;;;-4.17;100.00;100871.47;1709764;82;20995;-69
2022/12/18 12:52:39;;;;;;;12.20;7.10;;;;;;;-4.19;100.00;100886.27;1711841;82;21151;-70
2022/12/18 12:55:07;;;;;;;11.03;6.78;;;;;;;-4.20;100.00;100890.39;1708869;84;20991;-70
2022/12/18 12:57:39;;;;;;;12.47;7.55;;;;;;;-4.18;100.00;100896.41;1708660;84;21098;-70
2022/12/18 13:00:14;;;;;;;11.57;7.30;;;;;;;-4.15;100.00;100906.75;1720406;82;20990;-69
2022/12/18 13:02:52;;;;;;;12.95;7.70;;;;;;;-4.12;100.00;100901.13;1713081;82;21060;-69
2022/12/18 13:05:42;;;;;;;12.58;7.65;;;;;;;-4.12;100.00;100909.95;1738294;82;20960;-69
2022/12/18 13:08:10;;;;;;;13.55;7.67;;;;;;;-4.11;100.00;100912.92;1738024;82;21063;-70
2022/12/18 13:10:41;;;;;;;12.07;8.00;;;;;;;-4.11;100.00;100910.27;1724151;82;20968;-69
2022/12/18 13:13:14;;;;;;;11.78;6.78;;;;;;;-4.09;100.00;100918.11;1708503;82;21123;-69
2022/12/18 13:15:50;;;;;;;11.70;6.85;;;;;;;-4.10;100.00;100933.72;1708854;84;20995;-69
2022/12/18 13:18:23;;;;;;;11.35;6.30;;;;;;;-4.14;100.00;100934.98;1717942;82;21054;-69
2022/12/18 13:21:00;;;;;;;10.10;6.17;;;;;;;-4.12;100.00;100938.36;1745425;82;20983;-69
2022/12/18 13:23:34;;;;;;;9.88;5.72;;;;;;;-4.12;100.00;100947.66;1746471;82;21031;-69
2022/12/18 13:26:18;;;;;;;9.35;5.08;;;;;;;-4.11;100.00;100958.66;1746420;82;21039;-69
2022/12/18 13:28:51;;;;;;;9.48;5.05;;;;;;;-4.14;100.00;100950.95;1743239;82;21519;-69
2022/12/18 13:31:44;;;;;;;8.50;5.12;;;;;;;-4.18;100.00;100974.34;1737939;82;20992;-70
2022/12/18 13:34:20;;;;;;;9.43;4.90;;;;;;;-4.19;100.00;100971.84;1746269;82;20991;-69
2022/12/18 13:36:47;;;;;;;7.90;4.45;;;;;;;-4.17;100.00;100980.50;1735901;82;21008;-69
2022/12/18 13:39:24;;;;;;;9.25;5.92;;;;;;;-4.17;100.00;100984.48;1745336;82;21031;-69
2022/12/18 13:42:07;;;;;;;8.73;5.12;;;;;;;-4.16;100.00;100983.51;1746393;82;21661;-69
2022/12/18 13:44:39;;;;;;;8.58;5.53;;;;;;;-4.14;100.00;100987.69;1745681;82;20991;-69
2022/12/18 13:47:28;;;;;;;10.63;6.10;;;;;;;-4.18;100.00;100997.45;1744003;82;21066;-69
2022/12/18 13:49:55;;;;;;;11.83;6.78;;;;;;;-4.18;100.00;100990.81;1723286;82;21003;-69
2022/12/18 13:52:25;;;;;;;14.35;8.48;;;;;;;-4.19;100.00;100994.45;1716666;83;21130;-68
2022/12/18 13:54:58;;;;;;;17.07;9.68;;;;;;;-4.18;100.00;100994.80;1716901;83;20975;-69
2022/12/18 18:17:22;;;;;;;20.60;10.55;;;;;;;-7.71;100.00;101436.95;1811208;78;22647;-70
2022/12/18 18:19:49;;;;;;;20.25;10.20;;;;;;;-7.61;100.00;101445.88;1777754;80;21556;-70
2022/12/18 18:22:16;;;;;;;14.87;8.68;;;;;;;-7.37;100.00;101451.16;1772824;80;21096;-71
2022/12/18 18:24:45;;;;;;;13.60;7.00;;;;;;;-7.21;100.00;101438.92;1765896;80;21066;-71
2022/12/18 18:27:12;;;;;;;12.80;6.53;;;;;;;-7.08;100.00;101444.95;1773380;80;21635;-71
2022/12/18 18:29:39;;;;;;;10.53;5.90;;;;;;;-6.97;100.00;101450.27;1760504;80;21069;-72
2022/12/18 18:32:05;;;;;;;11.18;6.50;;;;;;;-6.89;100.00;101461.13;1736969;82;21003;-72
2022/12/18 18:34:32;;;;;;;12.35;6.80;;;;;;;-6.83;100.00;101460.65;1766675;80;21126;-70
2022/12/18 18:37:00;;;;;;;13.18;6.95;;;;;;;-6.79;100.00;101467.87;1771848;80;21022;-71
2022/12/18 18:39:26;;;;;;;30.77;14.23;;;;;;;-6.72;100.00;101467.28;1770087;80;21616;-71
2022/12/18 18:41:53;;;;;;;13.80;8.33;;;;;;;-6.66;100.00;101475.25;1768622;80;21031;-70
2022/12/18 18:44:19;;;;;;;16.77;10.95;;;;;;;-6.66;100.00;101478.72;1711469;83;21070;-69
2022/12/18 18:46:46;;;;;;;12.55;8.15;;;;;;;-6.58;100.00;101491.37;1732543;82;21880;-69
2022/12/18 18:49:14;;;;;;;14.80;8.25;;;;;;;-6.57;100.00;101487.77;1722793;82;21117;-70
2022/12/18 18:51:41;;;;;;;12.93;7.83;;;;;;;-6.56;100.00;101486.34;1726923;82;21065;-70
2022/12/18 18:54:07;;;;;;;;;;;;;;;-6.55;100.00;101501.72;1739083;82;21145;-70
2022/12/18 18:56:34;;;;;;;12.75;7.40;;;;;;;-6.53;100.00;101509.09;1712878;82;20421;-70
2022/12/18 18:59:00;;;;;;;15.98;7.37;;;;;;;-6.55;100.00;101511.84;1712722;83;21692;-70
2022/12/18 19:01:27;;;;;;;12.55;7.78;;;;;;;-6.56;100.00;101515.48;1721484;82;21042;-69
2022/12/18 19:03:53;;;;;;;10.82;6.55;;;;;;;-6.53;100.00;101510.89;1744782;82;21055;-70
2022/12/18 19:06:25;;;;;;;;;;;;;;;-6.52;100.00;101520.53;1737517;82;21034;-70
2022/12/18 19:08:52;;;;;;;11.60;6.28;;;;;;;-6.51;100.00;101523.52;1719420;82;20490;-69
2022/12/18 19:14:07;;;;;;;14.13;7.10;;;;;;;-6.55;100.00;101527.73;1728696;82;21158;-70
2022/12/18 19:16:34;;;;;;;14.85;7.58;;;;;;;-6.46;100.00;101535.47;1709648;82;21090;-70
2022/12/18 19:19:00;;;;;;;15.13;7.97;;;;;;;-6.40;100.00;101540.28;1712391;83;21730;-70
2022/12/18 19:21:30;;;;;;;13.30;7.70;;;;;;;-6.39;100.00;101553.06;1653533;86;21126;-70
2022/12/18 19:23:56;;;;;;;16.27;8.43;;;;;;;-6.45;100.00;101550.89;1673954;84;21578;-70
2022/12/18 19:26:23;;;;;;;13.72;8.08;;;;;;;-6.50;100.00;101554.36;1682755;85;21064;-69
2022/12/18 19:28:49;;;;;;;;;;;;;;;-6.52;100.00;101553.17;1650169;86;21103;-71
2022/12/18 19:31:16;;;;;;;12.03;6.53;;;;;;;-6.53;100.00;101553.28;1662249;86;20568;-70
2022/12/18 19:33:44;;;;;;;14.38;7.37;;;;;;;-6.62;100.00;101549.05;1710860;83;21497;-70
2022/12/18 19:36:20;;;;;;;14.43;6.92;;;;;;;-6.65;100.00;101545.31;1718686;83;21600;-70
2022/12/18 19:38:48;;;;;;;13.73;7.00;;;;;;;-6.63;100.00;101551.83;1709706;83;21534;-70
2022/12/18 19:41:15;;;;;;;16.82;7.20;;;;;;;-6.61;100.00;101569.28;1687294;83;21070;-69
2022/12/18 19:43:41;;;;;;;;;;;;;;;-6.62;100.00;101574.21;1704444;83;21565;-69
2022/12/18 19:46:10;;;;;;;12.43;5.78;;;;;;;-6.64;100.00;101581.44;1711855;83;20518;-69
2022/12/18 19:48:37;;;;;;;13.10;7.37;;;;;;;-6.69;100.00;101591.53;1712162;82;21021;-68
2022/12/18 19:51:08;;;;;;;10.50;5.72;;;;;;;-6.67;100.00;101590.95;1706203;83;21130;-68
2022/12/18 19:53:35;;;;;;;10.78;6.60;;;;;;;-6.62;100.00;101599.37;1705868;83;21678;-69
2022/12/18 19:56:06;;;;;;;11.90;6.78;;;;;;;-6.63;100.00;101605.66;1707974;83;21029;-69
2022/12/18 19:58:33;;;;;;;12.78;6.37;;;;;;;-6.63;100.00;101606.98;1662258;86;21035;-69
2022/12/18 20:00:59;;;;;;;12.20;6.55;;;;;;;-6.61;100.00;101615.64;1708585;83;20997;-69
2022/12/18 20:03:26;;;;;;;13.13;7.10;;;;;;;-6.62;100.00;101616.59;1705194;83;21017;-69
2022/12/18 20:05:52;;;;;;;14.30;6.78;;;;;;;-6.62;100.00;101609.97;1708868;83;21083;-69